sensor_id;sensor_type;location;lat;lon;timestamp;temperature;humidity
24158;DHT22;12316;50.904;4.200;2023-04-28T00:01:42;12.20;99.90
24158;DHT22;12316;50.904;4.200;2023-04-28T00:04:09;12.20;99.90
24158;DHT22;12316;50.904;4.200;2023-04-28T00:06:34;12.10;99.90
24158;DHT22;12316;50.904;4.200;2023-04-28T00:09:01;12.00;99.90
24158;DHT22;12316;50.904;4.200;2023-04-28T00:11:27;11.90;99.90
24158;DHT22;12316;50.904;4.200;2023-04-28T00:13:53;11.80;99.90
24158;DHT22;12316;50.904;4.200;2023-04-28T00:16:19;11.80;99.90
24158;DHT22;12316;50.904;4.200;2023-04-28T00:18:44;11.90;99.90
24158;DHT22;12316;50.904;4.200;2023-04-28T00:21:10;12.00;99.90
24158;DHT22;12316;50.904;4.200;2023-04-28T00:23:36;12.10;99.90
24158;DHT22;12316;50.904;4.200;2023-04-28T00:26:01;12.10;99.90
24158;DHT22;12316;50.904;4.200;2023-04-28T00:28:27;12.10;99.90
24158;DHT22;12316;50.904;4.200;2023-04-28T00:30:53;12.10;99.90
24158;DHT22;12316;50.904;4.200;2023-04-28T00:33:18;12.10;99.90
24158;DHT22;12316;50.904;4.200;2023-04-28T00:35:44;12.00;99.90
24158;DHT22;12316;50.904;4.200;2023-04-28T00:38:10;12.00;99.90
24158;DHT22;12316;50.904;4.200;2023-04-28T00:40:38;12.00;99.90
24158;DHT22;12316;50.904;4.200;2023-04-28T00:43:04;12.00;99.90
24158;DHT22;12316;50.904;4.200;2023-04-28T00:45:30;12.00;99.90
24158;DHT22;12316;50.904;4.200;2023-04-28T00:47:56;12.10;99.90
24158;DHT22;12316;50.904;4.200;2023-04-28T00:50:23;12.10;99.90
24158;DHT22;12316;50.904;4.200;2023-04-28T00:52:51;12.10;99.90
24158;DHT22;12316;50.904;4.200;2023-04-28T00:55:18;12.00;99.90
24158;DHT22;12316;50.904;4.200;2023-04-28T00:57:45;12.00;99.90
24158;DHT22;12316;50.904;4.200;2023-04-28T01:00:11;11.90;99.90
24158;DHT22;12316;50.904;4.200;2023-04-28T01:02:37;11.90;99.90
24158;DHT22;12316;50.904;4.200;2023-04-28T01:05:03;12.00;99.90
24158;DHT22;12316;50.904;4.200;2023-04-28T01:07:29;11.90;99.90
24158;DHT22;12316;50.904;4.200;2023-04-28T01:09:55;11.90;99.90
24158;DHT22;12316;50.904;4.200;2023-04-28T01:12:22;12.00;99.90
24158;DHT22;12316;50.904;4.200;2023-04-28T01:14:50;12.20;99.90
24158;DHT22;12316;50.904;4.200;2023-04-28T01:17:16;12.30;99.90
24158;DHT22;12316;50.904;4.200;2023-04-28T01:19:42;12.40;99.90
24158;DHT22;12316;50.904;4.200;2023-04-28T01:22:08;12.50;99.90
24158;DHT22;12316;50.904;4.200;2023-04-28T01:24:39;12.50;99.90
24158;DHT22;12316;50.904;4.200;2023-04-28T01:27:05;12.40;99.90
24158;DHT22;12316;50.904;4.200;2023-04-28T01:29:31;12.30;99.90
24158;DHT22;12316;50.904;4.200;2023-04-28T01:31:56;12.30;99.90
24158;DHT22;12316;50.904;4.200;2023-04-28T01:34:22;12.30;99.90
24158;DHT22;12316;50.904;4.200;2023-04-28T01:36:47;12.20;99.90
24158;DHT22;12316;50.904;4.200;2023-04-28T01:39:14;12.10;99.90
24158;DHT22;12316;50.904;4.200;2023-04-28T01:41:41;12.00;99.90
24158;DHT22;12316;50.904;4.200;2023-04-28T01:44:06;11.70;99.90
24158;DHT22;12316;50.904;4.200;2023-04-28T01:46:32;11.60;99.90
24158;DHT22;12316;50.904;4.200;2023-04-28T01:48:58;11.60;99.90
24158;DHT22;12316;50.904;4.200;2023-04-28T01:51:24;11.50;99.90
24158;DHT22;12316;50.904;4.200;2023-04-28T01:53:50;11.50;99.90
24158;DHT22;12316;50.904;4.200;2023-04-28T01:56:15;11.40;99.90
24158;DHT22;12316;50.904;4.200;2023-04-28T01:58:41;11.30;99.90
24158;DHT22;12316;50.904;4.200;2023-04-28T02:01:06;11.20;99.90
24158;DHT22;12316;50.904;4.200;2023-04-28T02:03:32;11.10;99.90
24158;DHT22;12316;50.904;4.200;2023-04-28T02:05:58;11.10;99.90
24158;DHT22;12316;50.904;4.200;2023-04-28T02:08:23;11.20;99.90
24158;DHT22;12316;50.904;4.200;2023-04-28T02:10:49;11.30;99.90
24158;DHT22;12316;50.904;4.200;2023-04-28T02:13:15;11.40;99.90
24158;DHT22;12316;50.904;4.200;2023-04-28T02:15:42;11.50;99.90
24158;DHT22;12316;50.904;4.200;2023-04-28T02:18:08;11.60;99.90
24158;DHT22;12316;50.904;4.200;2023-04-28T02:20:35;11.70;99.90
24158;DHT22;12316;50.904;4.200;2023-04-28T02:23:00;11.70;99.90
24158;DHT22;12316;50.904;4.200;2023-04-28T02:25:26;11.60;99.90
24158;DHT22;12316;50.904;4.200;2023-04-28T02:27:52;11.60;99.90
24158;DHT22;12316;50.904;4.200;2023-04-28T02:30:18;11.70;99.90
24158;DHT22;12316;50.904;4.200;2023-04-28T02:32:43;11.80;99.90
24158;DHT22;12316;50.904;4.200;2023-04-28T02:35:09;11.70;99.90
24158;DHT22;12316;50.904;4.200;2023-04-28T02:37:34;11.70;99.90
24158;DHT22;12316;50.904;4.200;2023-04-28T02:40:00;11.80;99.90
24158;DHT22;12316;50.904;4.200;2023-04-28T02:42:26;11.90;99.90
24158;DHT22;12316;50.904;4.200;2023-04-28T02:44:51;11.60;99.90
24158;DHT22;12316;50.904;4.200;2023-04-28T02:47:17;11.50;99.90
24158;DHT22;12316;50.904;4.200;2023-04-28T02:49:43;11.50;99.90
24158;DHT22;12316;50.904;4.200;2023-04-28T02:52:08;11.50;99.90
24158;DHT22;12316;50.904;4.200;2023-04-28T02:54:34;11.50;99.90
24158;DHT22;12316;50.904;4.200;2023-04-28T02:57:01;11.40;99.90
24158;DHT22;12316;50.904;4.200;2023-04-28T02:59:29;11.60;99.90
24158;DHT22;12316;50.904;4.200;2023-04-28T03:01:55;11.60;99.90
24158;DHT22;12316;50.904;4.200;2023-04-28T03:04:22;11.60;99.90
24158;DHT22;12316;50.904;4.200;2023-04-28T03:06:47;11.70;99.90
24158;DHT22;12316;50.904;4.200;2023-04-28T03:09:13;11.90;99.90
24158;DHT22;12316;50.904;4.200;2023-04-28T03:11:39;12.00;99.90
24158;DHT22;12316;50.904;4.200;2023-04-28T03:14:06;11.90;99.90
24158;DHT22;12316;50.904;4.200;2023-04-28T03:16:32;11.80;99.90
24158;DHT22;12316;50.904;4.200;2023-04-28T03:18:57;11.90;99.90
24158;DHT22;12316;50.904;4.200;2023-04-28T03:21:23;11.90;99.90
24158;DHT22;12316;50.904;4.200;2023-04-28T03:23:51;11.80;99.90
24158;DHT22;12316;50.904;4.200;2023-04-28T03:26:16;12.00;99.90
24158;DHT22;12316;50.904;4.200;2023-04-28T03:28:42;12.10;99.90
24158;DHT22;12316;50.904;4.200;2023-04-28T03:31:08;12.10;99.90
24158;DHT22;12316;50.904;4.200;2023-04-28T03:33:34;12.10;99.90
24158;DHT22;12316;50.904;4.200;2023-04-28T03:35:59;12.20;99.90
24158;DHT22;12316;50.904;4.200;2023-04-28T03:38:25;12.30;99.90
24158;DHT22;12316;50.904;4.200;2023-04-28T03:40:52;12.30;99.90
24158;DHT22;12316;50.904;4.200;2023-04-28T03:43:18;12.40;99.90
24158;DHT22;12316;50.904;4.200;2023-04-28T03:45:44;12.40;99.90
24158;DHT22;12316;50.904;4.200;2023-04-28T03:48:10;12.40;99.90
24158;DHT22;12316;50.904;4.200;2023-04-28T03:50:36;12.40;99.90
24158;DHT22;12316;50.904;4.200;2023-04-28T03:53:01;12.50;99.90
24158;DHT22;12316;50.904;4.200;2023-04-28T03:55:27;12.60;99.90
24158;DHT22;12316;50.904;4.200;2023-04-28T03:57:53;12.70;99.90
24158;DHT22;12316;50.904;4.200;2023-04-28T04:00:18;12.80;99.90
24158;DHT22;12316;50.904;4.200;2023-04-28T04:02:44;12.80;99.90
24158;DHT22;12316;50.904;4.200;2023-04-28T04:05:10;12.80;99.90
24158;DHT22;12316;50.904;4.200;2023-04-28T04:07:36;12.90;99.90
24158;DHT22;12316;50.904;4.200;2023-04-28T04:10:01;13.00;99.90
24158;DHT22;12316;50.904;4.200;2023-04-28T04:12:27;13.00;99.90
24158;DHT22;12316;50.904;4.200;2023-04-28T04:14:52;13.10;99.90
24158;DHT22;12316;50.904;4.200;2023-04-28T04:17:18;13.10;99.90
24158;DHT22;12316;50.904;4.200;2023-04-28T04:19:44;13.00;99.90
24158;DHT22;12316;50.904;4.200;2023-04-28T04:22:09;13.00;99.90
24158;DHT22;12316;50.904;4.200;2023-04-28T04:24:35;13.00;99.90
24158;DHT22;12316;50.904;4.200;2023-04-28T04:27:01;12.90;99.90
24158;DHT22;12316;50.904;4.200;2023-04-28T04:29:26;13.10;99.90
24158;DHT22;12316;50.904;4.200;2023-04-28T04:31:52;13.10;99.90
24158;DHT22;12316;50.904;4.200;2023-04-28T04:34:17;13.10;99.90
24158;DHT22;12316;50.904;4.200;2023-04-28T04:36:43;13.20;99.90
24158;DHT22;12316;50.904;4.200;2023-04-28T04:39:10;13.20;99.90
24158;DHT22;12316;50.904;4.200;2023-04-28T04:41:36;13.30;99.90
24158;DHT22;12316;50.904;4.200;2023-04-28T04:44:02;13.40;99.90
24158;DHT22;12316;50.904;4.200;2023-04-28T04:46:28;13.50;99.90
24158;DHT22;12316;50.904;4.200;2023-04-28T04:48:54;13.50;99.90
24158;DHT22;12316;50.904;4.200;2023-04-28T04:51:20;13.60;99.90
24158;DHT22;12316;50.904;4.200;2023-04-28T04:53:46;13.50;99.90
24158;DHT22;12316;50.904;4.200;2023-04-28T04:56:11;13.60;99.90
24158;DHT22;12316;50.904;4.200;2023-04-28T04:58:37;13.60;99.90
24158;DHT22;12316;50.904;4.200;2023-04-28T05:01:03;13.60;99.90
24158;DHT22;12316;50.904;4.200;2023-04-28T05:03:28;13.70;99.90
24158;DHT22;12316;50.904;4.200;2023-04-28T05:05:54;13.70;99.90
24158;DHT22;12316;50.904;4.200;2023-04-28T05:08:20;13.70;99.90
24158;DHT22;12316;50.904;4.200;2023-04-28T05:10:46;13.70;99.90
24158;DHT22;12316;50.904;4.200;2023-04-28T05:13:12;13.80;99.90
24158;DHT22;12316;50.904;4.200;2023-04-28T05:15:38;13.90;99.90
24158;DHT22;12316;50.904;4.200;2023-04-28T05:18:03;13.90;99.90
24158;DHT22;12316;50.904;4.200;2023-04-28T05:20:35;14.00;99.90
24158;DHT22;12316;50.904;4.200;2023-04-28T05:23:01;14.00;99.90
24158;DHT22;12316;50.904;4.200;2023-04-28T05:25:27;14.00;99.90
24158;DHT22;12316;50.904;4.200;2023-04-28T05:27:53;14.00;99.90
24158;DHT22;12316;50.904;4.200;2023-04-28T05:30:19;14.10;99.90
24158;DHT22;12316;50.904;4.200;2023-04-28T05:32:45;14.10;99.90
24158;DHT22;12316;50.904;4.200;2023-04-28T05:35:10;14.10;99.90
24158;DHT22;12316;50.904;4.200;2023-04-28T05:37:36;14.20;99.90
24158;DHT22;12316;50.904;4.200;2023-04-28T05:40:02;14.30;99.90
24158;DHT22;12316;50.904;4.200;2023-04-28T05:42:28;14.40;99.90
24158;DHT22;12316;50.904;4.200;2023-04-28T05:44:54;14.40;99.90
24158;DHT22;12316;50.904;4.200;2023-04-28T05:47:20;14.50;99.90
24158;DHT22;12316;50.904;4.200;2023-04-28T05:49:45;14.50;99.90
24158;DHT22;12316;50.904;4.200;2023-04-28T05:52:11;14.50;99.90
24158;DHT22;12316;50.904;4.200;2023-04-28T05:54:37;14.50;99.90
24158;DHT22;12316;50.904;4.200;2023-04-28T05:57:02;14.50;99.90
24158;DHT22;12316;50.904;4.200;2023-04-28T05:59:28;14.50;99.90
24158;DHT22;12316;50.904;4.200;2023-04-28T06:01:55;14.60;99.90
24158;DHT22;12316;50.904;4.200;2023-04-28T06:04:20;14.60;99.90
24158;DHT22;12316;50.904;4.200;2023-04-28T06:06:46;14.80;99.90
24158;DHT22;12316;50.904;4.200;2023-04-28T06:09:11;14.90;99.90
24158;DHT22;12316;50.904;4.200;2023-04-28T06:11:37;15.10;99.90
24158;DHT22;12316;50.904;4.200;2023-04-28T06:14:03;15.20;99.90
24158;DHT22;12316;50.904;4.200;2023-04-28T06:16:28;15.40;99.90
24158;DHT22;12316;50.904;4.200;2023-04-28T06:18:54;15.60;99.90
24158;DHT22;12316;50.904;4.200;2023-04-28T06:21:20;15.70;99.90
24158;DHT22;12316;50.904;4.200;2023-04-28T06:23:46;15.80;99.90
24158;DHT22;12316;50.904;4.200;2023-04-28T06:26:11;15.90;99.90
24158;DHT22;12316;50.904;4.200;2023-04-28T06:28:37;16.10;99.90
24158;DHT22;12316;50.904;4.200;2023-04-28T06:31:03;16.20;99.90
24158;DHT22;12316;50.904;4.200;2023-04-28T06:33:28;16.20;99.90
24158;DHT22;12316;50.904;4.200;2023-04-28T06:35:54;16.30;99.90
24158;DHT22;12316;50.904;4.200;2023-04-28T06:38:20;16.40;99.90
24158;DHT22;12316;50.904;4.200;2023-04-28T06:40:45;16.50;99.90
24158;DHT22;12316;50.904;4.200;2023-04-28T06:43:11;16.60;99.90
24158;DHT22;12316;50.904;4.200;2023-04-28T06:45:37;16.60;99.90
24158;DHT22;12316;50.904;4.200;2023-04-28T06:48:04;16.60;99.90
24158;DHT22;12316;50.904;4.200;2023-04-28T06:50:30;16.60;99.90
24158;DHT22;12316;50.904;4.200;2023-04-28T06:52:55;16.60;99.90
24158;DHT22;12316;50.904;4.200;2023-04-28T06:55:23;16.50;99.90
24158;DHT22;12316;50.904;4.200;2023-04-28T06:57:48;16.50;99.90
24158;DHT22;12316;50.904;4.200;2023-04-28T07:00:14;16.60;99.90
24158;DHT22;12316;50.904;4.200;2023-04-28T07:02:40;16.60;99.90
24158;DHT22;12316;50.904;4.200;2023-04-28T07:05:06;16.60;99.90
24158;DHT22;12316;50.904;4.200;2023-04-28T07:07:32;16.50;99.90
24158;DHT22;12316;50.904;4.200;2023-04-28T07:09:57;16.40;99.90
24158;DHT22;12316;50.904;4.200;2023-04-28T07:12:24;16.50;99.90
24158;DHT22;12316;50.904;4.200;2023-04-28T07:14:50;16.50;99.90
24158;DHT22;12316;50.904;4.200;2023-04-28T07:17:16;16.40;99.90
24158;DHT22;12316;50.904;4.200;2023-04-28T07:19:41;16.50;99.90
24158;DHT22;12316;50.904;4.200;2023-04-28T07:22:07;16.70;99.90
24158;DHT22;12316;50.904;4.200;2023-04-28T07:24:33;16.90;99.90
24158;DHT22;12316;50.904;4.200;2023-04-28T07:26:59;17.20;99.90
24158;DHT22;12316;50.904;4.200;2023-04-28T07:29:25;17.40;99.90
24158;DHT22;12316;50.904;4.200;2023-04-28T07:31:58;17.60;99.90
24158;DHT22;12316;50.904;4.200;2023-04-28T07:34:24;17.80;99.90
24158;DHT22;12316;50.904;4.200;2023-04-28T07:36:49;18.10;99.90
24158;DHT22;12316;50.904;4.200;2023-04-28T07:39:15;18.30;99.90
24158;DHT22;12316;50.904;4.200;2023-04-28T07:41:41;18.40;99.90
24158;DHT22;12316;50.904;4.200;2023-04-28T07:44:07;18.20;99.90
24158;DHT22;12316;50.904;4.200;2023-04-28T07:46:33;18.40;99.90
24158;DHT22;12316;50.904;4.200;2023-04-28T07:48:58;18.50;99.90
24158;DHT22;12316;50.904;4.200;2023-04-28T07:51:24;18.40;99.90
24158;DHT22;12316;50.904;4.200;2023-04-28T07:53:50;18.30;99.90
24158;DHT22;12316;50.904;4.200;2023-04-28T07:56:16;18.30;99.90
24158;DHT22;12316;50.904;4.200;2023-04-28T07:58:42;18.20;99.90
24158;DHT22;12316;50.904;4.200;2023-04-28T08:01:08;18.10;99.90
24158;DHT22;12316;50.904;4.200;2023-04-28T08:03:33;18.10;99.90
24158;DHT22;12316;50.904;4.200;2023-04-28T08:06:00;18.30;99.90
24158;DHT22;12316;50.904;4.200;2023-04-28T08:08:26;18.40;99.90
24158;DHT22;12316;50.904;4.200;2023-04-28T08:10:51;18.50;99.90
24158;DHT22;12316;50.904;4.200;2023-04-28T08:13:17;18.40;99.90
24158;DHT22;12316;50.904;4.200;2023-04-28T08:15:43;18.40;99.90
24158;DHT22;12316;50.904;4.200;2023-04-28T08:18:09;18.30;99.90
24158;DHT22;12316;50.904;4.200;2023-04-28T08:20:34;18.10;99.90
24158;DHT22;12316;50.904;4.200;2023-04-28T08:23:00;18.00;99.90
24158;DHT22;12316;50.904;4.200;2023-04-28T08:25:26;18.10;99.90
24158;DHT22;12316;50.904;4.200;2023-04-28T08:27:51;18.00;99.90
24158;DHT22;12316;50.904;4.200;2023-04-28T08:30:17;18.10;99.90
24158;DHT22;12316;50.904;4.200;2023-04-28T08:32:43;18.10;99.90
24158;DHT22;12316;50.904;4.200;2023-04-28T08:35:10;18.10;99.90
24158;DHT22;12316;50.904;4.200;2023-04-28T08:37:35;18.10;99.90
24158;DHT22;12316;50.904;4.200;2023-04-28T08:40:02;18.10;99.90
24158;DHT22;12316;50.904;4.200;2023-04-28T08:42:29;18.10;99.90
24158;DHT22;12316;50.904;4.200;2023-04-28T08:44:56;18.20;99.90
24158;DHT22;12316;50.904;4.200;2023-04-28T08:47:35;18.40;99.90
24158;DHT22;12316;50.904;4.200;2023-04-28T08:50:02;18.70;99.90
24158;DHT22;12316;50.904;4.200;2023-04-28T08:52:29;18.80;99.90
24158;DHT22;12316;50.904;4.200;2023-04-28T08:54:58;18.90;99.90
24158;DHT22;12316;50.904;4.200;2023-04-28T08:57:26;19.00;99.90
24158;DHT22;12316;50.904;4.200;2023-04-28T08:59:52;19.00;99.90
24158;DHT22;12316;50.904;4.200;2023-04-28T09:02:19;19.10;99.90
24158;DHT22;12316;50.904;4.200;2023-04-28T09:04:46;19.10;99.90
24158;DHT22;12316;50.904;4.200;2023-04-28T09:07:12;19.00;99.90
24158;DHT22;12316;50.904;4.200;2023-04-28T09:09:39;19.00;99.90
24158;DHT22;12316;50.904;4.200;2023-04-28T09:12:06;19.10;99.90
24158;DHT22;12316;50.904;4.200;2023-04-28T09:14:33;19.10;99.90
24158;DHT22;12316;50.904;4.200;2023-04-28T09:16:59;19.30;99.90
24158;DHT22;12316;50.904;4.200;2023-04-28T09:19:36;19.30;99.90
24158;DHT22;12316;50.904;4.200;2023-04-28T09:22:02;19.30;99.90
24158;DHT22;12316;50.904;4.200;2023-04-28T09:24:33;19.40;99.90
24158;DHT22;12316;50.904;4.200;2023-04-28T09:27:00;19.30;99.90
24158;DHT22;12316;50.904;4.200;2023-04-28T09:29:27;19.40;99.90
24158;DHT22;12316;50.904;4.200;2023-04-28T09:31:53;19.40;99.90
24158;DHT22;12316;50.904;4.200;2023-04-28T09:34:20;19.30;99.90
24158;DHT22;12316;50.904;4.200;2023-04-28T09:36:48;19.10;99.90
24158;DHT22;12316;50.904;4.200;2023-04-28T09:39:14;19.20;99.90
24158;DHT22;12316;50.904;4.200;2023-04-28T09:41:42;19.20;99.90
24158;DHT22;12316;50.904;4.200;2023-04-28T09:44:15;19.30;99.90
24158;DHT22;12316;50.904;4.200;2023-04-28T09:46:42;19.20;99.90
24158;DHT22;12316;50.904;4.200;2023-04-28T09:49:09;19.10;99.90
24158;DHT22;12316;50.904;4.200;2023-04-28T09:51:35;19.10;99.90
24158;DHT22;12316;50.904;4.200;2023-04-28T09:54:01;19.00;99.90
24158;DHT22;12316;50.904;4.200;2023-04-28T09:56:29;18.80;99.90
24158;DHT22;12316;50.904;4.200;2023-04-28T09:58:59;18.70;99.90
24158;DHT22;12316;50.904;4.200;2023-04-28T10:01:40;18.40;99.90
24158;DHT22;12316;50.904;4.200;2023-04-28T10:04:06;18.50;99.90
24158;DHT22;12316;50.904;4.200;2023-04-28T10:06:35;18.40;99.90
24158;DHT22;12316;50.904;4.200;2023-04-28T10:09:02;18.50;99.90
24158;DHT22;12316;50.904;4.200;2023-04-28T10:11:28;18.50;99.90
24158;DHT22;12316;50.904;4.200;2023-04-28T10:13:55;18.70;99.90
24158;DHT22;12316;50.904;4.200;2023-04-28T10:16:21;18.90;99.90
24158;DHT22;12316;50.904;4.200;2023-04-28T10:18:47;19.00;99.90
24158;DHT22;12316;50.904;4.200;2023-04-28T10:21:17;19.20;99.90
24158;DHT22;12316;50.904;4.200;2023-04-28T10:24:08;19.20;99.90
24158;DHT22;12316;50.904;4.200;2023-04-28T10:29:26;18.70;99.90
24158;DHT22;12316;50.904;4.200;2023-04-28T10:32:14;18.50;99.90
24158;DHT22;12316;50.904;4.200;2023-04-28T10:34:40;18.50;99.90
24158;DHT22;12316;50.904;4.200;2023-04-28T10:37:06;18.70;99.90
24158;DHT22;12316;50.904;4.200;2023-04-28T10:39:31;18.60;99.90
24158;DHT22;12316;50.904;4.200;2023-04-28T10:41:57;18.70;99.90
24158;DHT22;12316;50.904;4.200;2023-04-28T10:47:05;18.90;99.90
24158;DHT22;12316;50.904;4.200;2023-04-28T10:55:36;18.70;99.90
24158;DHT22;12316;50.904;4.200;2023-04-28T11:00:45;18.20;99.90
24158;DHT22;12316;50.904;4.200;2023-04-28T11:06:21;18.00;99.90
24158;DHT22;12316;50.904;4.200;2023-04-28T11:08:50;17.90;99.90
24158;DHT22;12316;50.904;4.200;2023-04-28T11:11:18;17.80;99.90
24158;DHT22;12316;50.904;4.200;2023-04-28T11:13:44;17.80;99.90
24158;DHT22;12316;50.904;4.200;2023-04-28T11:16:14;17.70;99.90
24158;DHT22;12316;50.904;4.200;2023-04-28T11:18:52;17.40;99.90
24158;DHT22;12316;50.904;4.200;2023-04-28T11:21:18;17.40;99.90
24158;DHT22;12316;50.904;4.200;2023-04-28T11:23:45;17.30;99.90
24158;DHT22;12316;50.904;4.200;2023-04-28T11:26:10;17.30;99.90
24158;DHT22;12316;50.904;4.200;2023-04-28T11:28:46;17.10;99.90
24158;DHT22;12316;50.904;4.200;2023-04-28T11:31:13;17.20;99.90
24158;DHT22;12316;50.904;4.200;2023-04-28T11:33:45;17.20;99.90
24158;DHT22;12316;50.904;4.200;2023-04-28T11:38:52;17.20;99.90
24158;DHT22;12316;50.904;4.200;2023-04-28T11:41:18;17.30;99.90
24158;DHT22;12316;50.904;4.200;2023-04-28T11:43:44;17.30;99.90
24158;DHT22;12316;50.904;4.200;2023-04-28T11:46:18;17.10;99.90
24158;DHT22;12316;50.904;4.200;2023-04-28T11:48:44;17.10;99.90
24158;DHT22;12316;50.904;4.200;2023-04-28T11:51:29;17.20;99.90
24158;DHT22;12316;50.904;4.200;2023-04-28T11:53:55;17.00;99.90
24158;DHT22;12316;50.904;4.200;2023-04-28T11:56:20;16.70;99.90
24158;DHT22;12316;50.904;4.200;2023-04-28T11:58:59;16.70;99.90
24158;DHT22;12316;50.904;4.200;2023-04-28T12:01:25;16.70;99.90
24158;DHT22;12316;50.904;4.200;2023-04-28T12:03:51;16.70;99.90
24158;DHT22;12316;50.904;4.200;2023-04-28T12:06:17;16.70;99.90
24158;DHT22;12316;50.904;4.200;2023-04-28T12:08:43;16.60;99.90
24158;DHT22;12316;50.904;4.200;2023-04-28T12:11:10;16.80;99.90
24158;DHT22;12316;50.904;4.200;2023-04-28T12:13:38;16.80;99.90
24158;DHT22;12316;50.904;4.200;2023-04-28T12:16:05;16.80;99.90
24158;DHT22;12316;50.904;4.200;2023-04-28T12:18:35;17.00;99.90
24158;DHT22;12316;50.904;4.200;2023-04-28T12:21:02;16.90;99.90
24158;DHT22;12316;50.904;4.200;2023-04-28T12:23:31;17.00;99.90
24158;DHT22;12316;50.904;4.200;2023-04-28T12:25:58;17.20;99.90
24158;DHT22;12316;50.904;4.200;2023-04-28T12:28:38;17.20;99.90
24158;DHT22;12316;50.904;4.200;2023-04-28T12:31:05;17.20;99.90
24158;DHT22;12316;50.904;4.200;2023-04-28T12:33:33;17.10;99.90
24158;DHT22;12316;50.904;4.200;2023-04-28T12:36:02;17.00;99.90
24158;DHT22;12316;50.904;4.200;2023-04-28T12:38:29;17.10;99.90
24158;DHT22;12316;50.904;4.200;2023-04-28T12:40:55;17.30;99.90
24158;DHT22;12316;50.904;4.200;2023-04-28T12:43:21;17.50;99.90
24158;DHT22;12316;50.904;4.200;2023-04-28T12:45:52;17.50;99.90
24158;DHT22;12316;50.904;4.200;2023-04-28T12:48:18;17.40;99.90
24158;DHT22;12316;50.904;4.200;2023-04-28T12:50:44;17.50;99.90
24158;DHT22;12316;50.904;4.200;2023-04-28T12:53:10;17.40;99.90
24158;DHT22;12316;50.904;4.200;2023-04-28T12:55:36;17.40;99.90
24158;DHT22;12316;50.904;4.200;2023-04-28T12:58:04;17.60;99.90
24158;DHT22;12316;50.904;4.200;2023-04-28T13:00:30;17.60;99.90
24158;DHT22;12316;50.904;4.200;2023-04-28T13:02:56;17.50;99.90
24158;DHT22;12316;50.904;4.200;2023-04-28T13:05:22;17.50;99.90
24158;DHT22;12316;50.904;4.200;2023-04-28T13:07:47;17.40;99.90
24158;DHT22;12316;50.904;4.200;2023-04-28T13:10:15;17.40;99.90
24158;DHT22;12316;50.904;4.200;2023-04-28T13:12:42;17.20;99.90
24158;DHT22;12316;50.904;4.200;2023-04-28T13:15:08;17.00;99.90
24158;DHT22;12316;50.904;4.200;2023-04-28T13:17:34;17.10;99.90
24158;DHT22;12316;50.904;4.200;2023-04-28T13:20:00;17.10;99.90
24158;DHT22;12316;50.904;4.200;2023-04-28T13:22:28;17.00;99.90
24158;DHT22;12316;50.904;4.200;2023-04-28T13:24:53;17.10;99.90
24158;DHT22;12316;50.904;4.200;2023-04-28T13:27:20;17.20;99.90
24158;DHT22;12316;50.904;4.200;2023-04-28T13:29:46;17.20;99.90
24158;DHT22;12316;50.904;4.200;2023-04-28T13:32:12;17.20;99.90
24158;DHT22;12316;50.904;4.200;2023-04-28T13:34:37;17.30;99.90
24158;DHT22;12316;50.904;4.200;2023-04-28T13:37:03;17.40;99.90
24158;DHT22;12316;50.904;4.200;2023-04-28T13:39:29;17.40;99.90
24158;DHT22;12316;50.904;4.200;2023-04-28T13:41:54;17.50;99.90
24158;DHT22;12316;50.904;4.200;2023-04-28T13:44:20;17.30;99.90
24158;DHT22;12316;50.904;4.200;2023-04-28T13:46:46;17.40;99.90
24158;DHT22;12316;50.904;4.200;2023-04-28T13:49:12;17.40;99.90
24158;DHT22;12316;50.904;4.200;2023-04-28T13:51:38;17.30;99.90
24158;DHT22;12316;50.904;4.200;2023-04-28T13:54:04;17.40;99.90
24158;DHT22;12316;50.904;4.200;2023-04-28T13:56:33;17.40;99.90
24158;DHT22;12316;50.904;4.200;2023-04-28T13:58:59;17.70;99.90
24158;DHT22;12316;50.904;4.200;2023-04-28T14:01:25;17.80;99.90
24158;DHT22;12316;50.904;4.200;2023-04-28T14:03:51;17.80;99.90
24158;DHT22;12316;50.904;4.200;2023-04-28T14:06:17;17.90;99.90
24158;DHT22;12316;50.904;4.200;2023-04-28T14:08:42;17.60;99.90
24158;DHT22;12316;50.904;4.200;2023-04-28T14:11:08;17.60;99.90
24158;DHT22;12316;50.904;4.200;2023-04-28T14:13:34;17.70;99.90
24158;DHT22;12316;50.904;4.200;2023-04-28T14:16:00;17.70;99.90
24158;DHT22;12316;50.904;4.200;2023-04-28T14:18:27;18.00;99.90
24158;DHT22;12316;50.904;4.200;2023-04-28T14:20:53;18.00;99.90
24158;DHT22;12316;50.904;4.200;2023-04-28T14:23:19;18.20;99.90
24158;DHT22;12316;50.904;4.200;2023-04-28T14:25:45;18.30;99.90
24158;DHT22;12316;50.904;4.200;2023-04-28T14:28:11;18.30;99.90
24158;DHT22;12316;50.904;4.200;2023-04-28T14:30:36;18.30;99.90
24158;DHT22;12316;50.904;4.200;2023-04-28T14:33:02;18.30;99.90
24158;DHT22;12316;50.904;4.200;2023-04-28T14:35:28;18.20;99.90
24158;DHT22;12316;50.904;4.200;2023-04-28T14:37:56;18.20;99.90
24158;DHT22;12316;50.904;4.200;2023-04-28T14:40:21;18.10;99.90
24158;DHT22;12316;50.904;4.200;2023-04-28T14:42:48;18.10;99.90
24158;DHT22;12316;50.904;4.200;2023-04-28T14:45:13;18.10;99.90
24158;DHT22;12316;50.904;4.200;2023-04-28T14:47:40;18.20;99.90
24158;DHT22;12316;50.904;4.200;2023-04-28T14:50:06;18.30;99.90
24158;DHT22;12316;50.904;4.200;2023-04-28T14:52:32;18.60;99.90
24158;DHT22;12316;50.904;4.200;2023-04-28T14:54:58;18.80;99.90
24158;DHT22;12316;50.904;4.200;2023-04-28T14:57:24;18.90;99.90
24158;DHT22;12316;50.904;4.200;2023-04-28T14:59:50;19.10;99.90
24158;DHT22;12316;50.904;4.200;2023-04-28T15:02:17;19.20;99.90
24158;DHT22;12316;50.904;4.200;2023-04-28T15:04:44;19.00;99.90
24158;DHT22;12316;50.904;4.200;2023-04-28T15:07:11;19.00;99.90
24158;DHT22;12316;50.904;4.200;2023-04-28T15:09:36;19.00;99.90
24158;DHT22;12316;50.904;4.200;2023-04-28T15:12:02;19.10;99.90
24158;DHT22;12316;50.904;4.200;2023-04-28T15:14:29;19.10;99.90
24158;DHT22;12316;50.904;4.200;2023-04-28T15:16:54;18.90;99.90
24158;DHT22;12316;50.904;4.200;2023-04-28T15:19:20;18.60;99.90
24158;DHT22;12316;50.904;4.200;2023-04-28T15:21:46;18.60;99.90
24158;DHT22;12316;50.904;4.200;2023-04-28T15:24:13;18.50;99.90
24158;DHT22;12316;50.904;4.200;2023-04-28T15:26:39;18.30;99.90
24158;DHT22;12316;50.904;4.200;2023-04-28T15:29:05;18.40;99.90
24158;DHT22;12316;50.904;4.200;2023-04-28T15:31:31;18.20;99.90
24158;DHT22;12316;50.904;4.200;2023-04-28T15:33:57;18.30;99.90
24158;DHT22;12316;50.904;4.200;2023-04-28T15:36:22;18.30;99.90
24158;DHT22;12316;50.904;4.200;2023-04-28T15:38:48;18.20;99.90
24158;DHT22;12316;50.904;4.200;2023-04-28T15:41:16;18.00;99.90
24158;DHT22;12316;50.904;4.200;2023-04-28T15:43:42;18.00;99.90
24158;DHT22;12316;50.904;4.200;2023-04-28T15:46:09;17.80;99.90